sensor_id;sensor_type;location;lat;lon;timestamp;temperature;humidity
19206;DHT22;59358;52.134;5.596;2023-04-16T00:02:15;8.80;99.90
19206;DHT22;59358;52.134;5.596;2023-04-16T00:04:42;8.80;99.90
19206;DHT22;59358;52.134;5.596;2023-04-16T00:07:09;8.80;99.90
19206;DHT22;59358;52.134;5.596;2023-04-16T00:09:36;8.80;99.90
19206;DHT22;59358;52.134;5.596;2023-04-16T00:12:03;8.90;99.90
19206;DHT22;59358;52.134;5.596;2023-04-16T00:14:30;8.90;99.90
19206;DHT22;59358;52.134;5.596;2023-04-16T00:16:57;8.90;99.90
19206;DHT22;59358;52.134;5.596;2023-04-16T00:19:26;8.90;99.90
19206;DHT22;59358;52.134;5.596;2023-04-16T00:21:53;8.80;99.90
19206;DHT22;59358;52.134;5.596;2023-04-16T00:24:19;8.90;99.90
19206;DHT22;59358;52.134;5.596;2023-04-16T00:26:46;8.90;99.90
19206;DHT22;59358;52.134;5.596;2023-04-16T00:29:13;9.00;99.90
19206;DHT22;59358;52.134;5.596;2023-04-16T00:31:40;8.90;99.90
19206;DHT22;59358;52.134;5.596;2023-04-16T00:34:07;8.90;99.90
19206;DHT22;59358;52.134;5.596;2023-04-16T00:36:35;8.80;99.90
19206;DHT22;59358;52.134;5.596;2023-04-16T00:39:02;8.80;99.90
19206;DHT22;59358;52.134;5.596;2023-04-16T00:41:29;8.90;99.90
19206;DHT22;59358;52.134;5.596;2023-04-16T00:43:56;8.80;99.90
19206;DHT22;59358;52.134;5.596;2023-04-16T00:46:23;8.90;99.90
19206;DHT22;59358;52.134;5.596;2023-04-16T00:48:50;8.90;99.90
19206;DHT22;59358;52.134;5.596;2023-04-16T00:51:18;8.90;99.90
19206;DHT22;59358;52.134;5.596;2023-04-16T00:53:47;8.90;99.90
19206;DHT22;59358;52.134;5.596;2023-04-16T00:56:14;8.90;99.90
19206;DHT22;59358;52.134;5.596;2023-04-16T00:58:40;8.90;99.90
19206;DHT22;59358;52.134;5.596;2023-04-16T01:01:07;8.90;99.90
19206;DHT22;59358;52.134;5.596;2023-04-16T01:03:37;8.90;99.90
19206;DHT22;59358;52.134;5.596;2023-04-16T01:06:06;8.90;99.90
19206;DHT22;59358;52.134;5.596;2023-04-16T01:08:33;8.90;99.90
19206;DHT22;59358;52.134;5.596;2023-04-16T01:11:01;8.90;99.90
19206;DHT22;59358;52.134;5.596;2023-04-16T01:13:28;8.90;99.90
19206;DHT22;59358;52.134;5.596;2023-04-16T01:15:56;8.90;99.90
19206;DHT22;59358;52.134;5.596;2023-04-16T01:18:24;8.90;99.90
19206;DHT22;59358;52.134;5.596;2023-04-16T01:20:52;8.90;99.90
19206;DHT22;59358;52.134;5.596;2023-04-16T01:23:19;8.90;99.90
19206;DHT22;59358;52.134;5.596;2023-04-16T01:25:46;8.90;99.90
19206;DHT22;59358;52.134;5.596;2023-04-16T01:28:13;8.90;99.90
19206;DHT22;59358;52.134;5.596;2023-04-16T01:30:40;8.90;99.90
19206;DHT22;59358;52.134;5.596;2023-04-16T01:33:09;8.90;99.90
19206;DHT22;59358;52.134;5.596;2023-04-16T01:35:36;8.90;99.90
19206;DHT22;59358;52.134;5.596;2023-04-16T01:38:04;8.90;99.90
19206;DHT22;59358;52.134;5.596;2023-04-16T01:40:32;8.90;99.90
19206;DHT22;59358;52.134;5.596;2023-04-16T01:42:59;8.90;99.90
19206;DHT22;59358;52.134;5.596;2023-04-16T01:45:26;8.90;99.90
19206;DHT22;59358;52.134;5.596;2023-04-16T01:47:53;9.00;99.90
19206;DHT22;59358;52.134;5.596;2023-04-16T01:50:20;9.00;99.90
19206;DHT22;59358;52.134;5.596;2023-04-16T01:52:47;8.90;99.90
19206;DHT22;59358;52.134;5.596;2023-04-16T01:55:15;8.90;99.90
19206;DHT22;59358;52.134;5.596;2023-04-16T01:57:42;8.90;99.90
19206;DHT22;59358;52.134;5.596;2023-04-16T02:00:09;8.90;99.90
19206;DHT22;59358;52.134;5.596;2023-04-16T02:02:36;8.90;99.90
19206;DHT22;59358;52.134;5.596;2023-04-16T02:05:04;9.00;99.90
19206;DHT22;59358;52.134;5.596;2023-04-16T02:07:31;9.00;99.90
19206;DHT22;59358;52.134;5.596;2023-04-16T02:09:57;9.00;99.90
19206;DHT22;59358;52.134;5.596;2023-04-16T02:12:26;9.00;99.90
19206;DHT22;59358;52.134;5.596;2023-04-16T02:14:52;9.00;99.90
19206;DHT22;59358;52.134;5.596;2023-04-16T02:17:19;8.90;99.90
19206;DHT22;59358;52.134;5.596;2023-04-16T02:19:46;8.90;99.90
19206;DHT22;59358;52.134;5.596;2023-04-16T02:22:13;8.90;99.90
19206;DHT22;59358;52.134;5.596;2023-04-16T02:24:40;8.90;99.90
19206;DHT22;59358;52.134;5.596;2023-04-16T02:27:07;8.90;99.90
19206;DHT22;59358;52.134;5.596;2023-04-16T02:29:35;8.90;99.90
19206;DHT22;59358;52.134;5.596;2023-04-16T02:32:02;9.00;99.90
19206;DHT22;59358;52.134;5.596;2023-04-16T02:34:29;8.90;99.90
19206;DHT22;59358;52.134;5.596;2023-04-16T02:36:58;8.90;99.90
19206;DHT22;59358;52.134;5.596;2023-04-16T02:39:24;8.90;99.90
19206;DHT22;59358;52.134;5.596;2023-04-16T02:41:51;8.90;99.90
19206;DHT22;59358;52.134;5.596;2023-04-16T02:44:18;8.90;99.90
19206;DHT22;59358;52.134;5.596;2023-04-16T02:46:47;9.00;99.90
19206;DHT22;59358;52.134;5.596;2023-04-16T02:49:13;9.00;99.90
19206;DHT22;59358;52.134;5.596;2023-04-16T02:51:40;9.00;99.90
19206;DHT22;59358;52.134;5.596;2023-04-16T02:54:07;9.00;99.90
19206;DHT22;59358;52.134;5.596;2023-04-16T02:56:34;9.00;99.90
19206;DHT22;59358;52.134;5.596;2023-04-16T02:59:01;9.10;99.90
19206;DHT22;59358;52.134;5.596;2023-04-16T03:01:27;9.00;99.90
19206;DHT22;59358;52.134;5.596;2023-04-16T03:03:56;9.00;99.90
19206;DHT22;59358;52.134;5.596;2023-04-16T03:06:22;9.00;99.90
19206;DHT22;59358;52.134;5.596;2023-04-16T03:08:50;9.00;99.90
19206;DHT22;59358;52.134;5.596;2023-04-16T03:11:17;9.00;99.90
19206;DHT22;59358;52.134;5.596;2023-04-16T03:13:44;9.00;99.90
19206;DHT22;59358;52.134;5.596;2023-04-16T03:16:11;9.10;99.90
19206;DHT22;59358;52.134;5.596;2023-04-16T03:18:38;9.10;99.90
19206;DHT22;59358;52.134;5.596;2023-04-16T03:21:06;9.10;99.90
19206;DHT22;59358;52.134;5.596;2023-04-16T03:23:33;9.10;99.90
19206;DHT22;59358;52.134;5.596;2023-04-16T03:26:00;9.00;99.90
19206;DHT22;59358;52.134;5.596;2023-04-16T03:28:27;9.00;99.90
19206;DHT22;59358;52.134;5.596;2023-04-16T03:30:54;9.00;99.90
19206;DHT22;59358;52.134;5.596;2023-04-16T03:33:21;9.00;99.90
19206;DHT22;59358;52.134;5.596;2023-04-16T03:35:54;9.00;99.90
19206;DHT22;59358;52.134;5.596;2023-04-16T03:38:22;9.10;99.90
19206;DHT22;59358;52.134;5.596;2023-04-16T03:40:50;9.10;99.90
19206;DHT22;59358;52.134;5.596;2023-04-16T03:43:17;9.10;99.90
19206;DHT22;59358;52.134;5.596;2023-04-16T03:45:43;9.00;99.90
19206;DHT22;59358;52.134;5.596;2023-04-16T03:48:11;9.00;99.90
19206;DHT22;59358;52.134;5.596;2023-04-16T03:50:38;9.00;99.90
19206;DHT22;59358;52.134;5.596;2023-04-16T03:53:05;9.10;99.90
19206;DHT22;59358;52.134;5.596;2023-04-16T03:55:33;9.00;99.90
19206;DHT22;59358;52.134;5.596;2023-04-16T03:58:00;9.00;99.90
19206;DHT22;59358;52.134;5.596;2023-04-16T04:00:27;9.00;99.90
19206;DHT22;59358;52.134;5.596;2023-04-16T04:02:55;9.00;99.90
19206;DHT22;59358;52.134;5.596;2023-04-16T04:05:21;8.90;99.90
19206;DHT22;59358;52.134;5.596;2023-04-16T04:07:48;8.90;99.90
19206;DHT22;59358;52.134;5.596;2023-04-16T04:10:15;8.90;99.90
19206;DHT22;59358;52.134;5.596;2023-04-16T04:12:43;8.80;99.90
19206;DHT22;59358;52.134;5.596;2023-04-16T04:15:10;8.90;99.90
19206;DHT22;59358;52.134;5.596;2023-04-16T04:17:37;8.90;99.90
19206;DHT22;59358;52.134;5.596;2023-04-16T04:20:05;8.90;99.90
19206;DHT22;59358;52.134;5.596;2023-04-16T04:22:32;8.90;99.90
19206;DHT22;59358;52.134;5.596;2023-04-16T04:24:59;8.90;99.90
19206;DHT22;59358;52.134;5.596;2023-04-16T04:27:25;8.90;99.90
19206;DHT22;59358;52.134;5.596;2023-04-16T04:29:53;8.90;99.90
19206;DHT22;59358;52.134;5.596;2023-04-16T04:32:20;8.90;99.90
19206;DHT22;59358;52.134;5.596;2023-04-16T04:34:47;9.00;99.90
19206;DHT22;59358;52.134;5.596;2023-04-16T04:37:14;8.90;99.90
19206;DHT22;59358;52.134;5.596;2023-04-16T04:39:41;9.00;99.90
19206;DHT22;59358;52.134;5.596;2023-04-16T04:42:08;8.90;99.90
19206;DHT22;59358;52.134;5.596;2023-04-16T04:44:35;9.00;99.90
19206;DHT22;59358;52.134;5.596;2023-04-16T04:47:03;8.90;99.90
19206;DHT22;59358;52.134;5.596;2023-04-16T04:49:30;8.90;99.90
19206;DHT22;59358;52.134;5.596;2023-04-16T04:51:57;8.90;99.90
19206;DHT22;59358;52.134;5.596;2023-04-16T04:54:23;8.90;99.90
19206;DHT22;59358;52.134;5.596;2023-04-16T04:56:50;9.00;99.90
19206;DHT22;59358;52.134;5.596;2023-04-16T04:59:18;9.00;99.90
19206;DHT22;59358;52.134;5.596;2023-04-16T05:01:45;9.00;99.90
19206;DHT22;59358;52.134;5.596;2023-04-16T05:04:13;9.00;99.90
19206;DHT22;59358;52.134;5.596;2023-04-16T05:06:41;9.10;99.90
19206;DHT22;59358;52.134;5.596;2023-04-16T05:09:08;9.10;99.90
19206;DHT22;59358;52.134;5.596;2023-04-16T05:11:36;9.10;99.90
19206;DHT22;59358;52.134;5.596;2023-04-16T05:14:03;9.10;99.90
19206;DHT22;59358;52.134;5.596;2023-04-16T05:16:30;9.10;99.90
19206;DHT22;59358;52.134;5.596;2023-04-16T05:18:57;9.20;99.90
19206;DHT22;59358;52.134;5.596;2023-04-16T05:21:25;9.10;99.90
19206;DHT22;59358;52.134;5.596;2023-04-16T05:23:52;9.10;99.90
19206;DHT22;59358;52.134;5.596;2023-04-16T05:26:19;9.10;99.90
19206;DHT22;59358;52.134;5.596;2023-04-16T05:28:45;9.10;99.90
19206;DHT22;59358;52.134;5.596;2023-04-16T05:31:12;9.10;99.90
19206;DHT22;59358;52.134;5.596;2023-04-16T05:33:39;9.20;99.90
19206;DHT22;59358;52.134;5.596;2023-04-16T05:36:06;9.20;99.90
19206;DHT22;59358;52.134;5.596;2023-04-16T05:38:34;9.10;99.90
19206;DHT22;59358;52.134;5.596;2023-04-16T05:41:01;9.20;99.90
19206;DHT22;59358;52.134;5.596;2023-04-16T05:43:27;9.10;99.90
19206;DHT22;59358;52.134;5.596;2023-04-16T05:45:54;9.10;99.90
19206;DHT22;59358;52.134;5.596;2023-04-16T05:48:21;9.10;99.90
19206;DHT22;59358;52.134;5.596;2023-04-16T05:50:48;9.10;99.90
19206;DHT22;59358;52.134;5.596;2023-04-16T05:53:15;9.10;99.90
19206;DHT22;59358;52.134;5.596;2023-04-16T05:55:44;9.10;99.90
19206;DHT22;59358;52.134;5.596;2023-04-16T05:58:12;9.10;99.90
19206;DHT22;59358;52.134;5.596;2023-04-16T06:00:39;9.00;99.90
19206;DHT22;59358;52.134;5.596;2023-04-16T06:03:06;9.30;99.90
19206;DHT22;59358;52.134;5.596;2023-04-16T06:05:32;9.20;99.90
19206;DHT22;59358;52.134;5.596;2023-04-16T06:07:59;9.20;99.90
19206;DHT22;59358;52.134;5.596;2023-04-16T06:10:26;9.30;99.90
19206;DHT22;59358;52.134;5.596;2023-04-16T06:12:54;9.40;99.90
19206;DHT22;59358;52.134;5.596;2023-04-16T06:15:21;9.40;99.90
19206;DHT22;59358;52.134;5.596;2023-04-16T06:17:48;9.50;99.90
19206;DHT22;59358;52.134;5.596;2023-04-16T06:20:15;9.50;99.90
19206;DHT22;59358;52.134;5.596;2023-04-16T06:22:42;9.40;99.90
19206;DHT22;59358;52.134;5.596;2023-04-16T06:25:10;9.40;99.90
19206;DHT22;59358;52.134;5.596;2023-04-16T06:27:40;9.50;99.90
19206;DHT22;59358;52.134;5.596;2023-04-16T06:30:12;9.40;99.90
19206;DHT22;59358;52.134;5.596;2023-04-16T06:32:42;9.40;99.90
19206;DHT22;59358;52.134;5.596;2023-04-16T06:35:09;9.40;99.90
19206;DHT22;59358;52.134;5.596;2023-04-16T06:37:39;9.40;99.90
19206;DHT22;59358;52.134;5.596;2023-04-16T06:40:07;9.40;99.90
19206;DHT22;59358;52.134;5.596;2023-04-16T06:42:34;9.40;99.90
19206;DHT22;59358;52.134;5.596;2023-04-16T06:45:01;9.50;99.90
19206;DHT22;59358;52.134;5.596;2023-04-16T06:47:34;9.50;99.90
19206;DHT22;59358;52.134;5.596;2023-04-16T06:50:00;9.50;99.90
19206;DHT22;59358;52.134;5.596;2023-04-16T06:52:28;9.60;99.90
19206;DHT22;59358;52.134;5.596;2023-04-16T06:54:55;9.50;99.90
19206;DHT22;59358;52.134;5.596;2023-04-16T06:57:22;9.60;99.90
19206;DHT22;59358;52.134;5.596;2023-04-16T06:59:48;9.60;99.90
19206;DHT22;59358;52.134;5.596;2023-04-16T07:02:15;9.60;99.90
19206;DHT22;59358;52.134;5.596;2023-04-16T07:04:43;9.60;99.90
19206;DHT22;59358;52.134;5.596;2023-04-16T07:07:10;9.60;99.90
19206;DHT22;59358;52.134;5.596;2023-04-16T07:09:37;9.60;99.90
19206;DHT22;59358;52.134;5.596;2023-04-16T07:12:05;9.50;99.90
19206;DHT22;59358;52.134;5.596;2023-04-16T07:14:36;9.70;99.90
19206;DHT22;59358;52.134;5.596;2023-04-16T07:17:03;9.70;99.90
19206;DHT22;59358;52.134;5.596;2023-04-16T07:19:30;9.70;99.90
19206;DHT22;59358;52.134;5.596;2023-04-16T07:21:58;9.70;99.90
19206;DHT22;59358;52.134;5.596;2023-04-16T07:24:25;9.70;99.90
19206;DHT22;59358;52.134;5.596;2023-04-16T07:26:52;9.70;99.90
19206;DHT22;59358;52.134;5.596;2023-04-16T07:29:19;9.80;99.90
19206;DHT22;59358;52.134;5.596;2023-04-16T07:31:46;9.90;99.90
19206;DHT22;59358;52.134;5.596;2023-04-16T07:34:12;9.80;99.90
19206;DHT22;59358;52.134;5.596;2023-04-16T07:36:39;9.80;99.90
19206;DHT22;59358;52.134;5.596;2023-04-16T07:39:07;9.80;99.90
19206;DHT22;59358;52.134;5.596;2023-04-16T07:41:35;9.70;99.90
19206;DHT22;59358;52.134;5.596;2023-04-16T07:44:05;9.70;99.90
19206;DHT22;59358;52.134;5.596;2023-04-16T07:46:32;9.80;99.90
19206;DHT22;59358;52.134;5.596;2023-04-16T07:48:58;9.80;99.90
19206;DHT22;59358;52.134;5.596;2023-04-16T07:51:25;9.90;99.90
19206;DHT22;59358;52.134;5.596;2023-04-16T07:53:52;9.90;99.90
19206;DHT22;59358;52.134;5.596;2023-04-16T07:56:20;10.00;99.90
19206;DHT22;59358;52.134;5.596;2023-04-16T07:58:47;10.00;99.90
19206;DHT22;59358;52.134;5.596;2023-04-16T08:01:14;10.00;99.90
19206;DHT22;59358;52.134;5.596;2023-04-16T08:03:41;10.00;99.90
19206;DHT22;59358;52.134;5.596;2023-04-16T08:06:08;10.00;99.90
19206;DHT22;59358;52.134;5.596;2023-04-16T08:08:35;10.10;99.90
19206;DHT22;59358;52.134;5.596;2023-04-16T08:11:04;10.10;99.90
19206;DHT22;59358;52.134;5.596;2023-04-16T08:13:32;10.20;99.90
19206;DHT22;59358;52.134;5.596;2023-04-16T08:16:00;10.30;99.90
19206;DHT22;59358;52.134;5.596;2023-04-16T08:18:29;10.20;99.90
19206;DHT22;59358;52.134;5.596;2023-04-16T08:20:56;10.20;99.90
19206;DHT22;59358;52.134;5.596;2023-04-16T08:23:26;10.20;99.90
19206;DHT22;59358;52.134;5.596;2023-04-16T08:25:53;10.20;99.90
19206;DHT22;59358;52.134;5.596;2023-04-16T08:28:20;10.30;99.90
19206;DHT22;59358;52.134;5.596;2023-04-16T08:30:48;10.30;99.90
19206;DHT22;59358;52.134;5.596;2023-04-16T08:33:15;10.30;99.90
19206;DHT22;59358;52.134;5.596;2023-04-16T08:35:44;10.30;99.90
19206;DHT22;59358;52.134;5.596;2023-04-16T08:38:12;10.40;99.90
19206;DHT22;59358;52.134;5.596;2023-04-16T08:40:40;10.40;99.90
19206;DHT22;59358;52.134;5.596;2023-04-16T08:43:09;10.30;99.90
19206;DHT22;59358;52.134;5.596;2023-04-16T08:45:40;10.40;99.90
19206;DHT22;59358;52.134;5.596;2023-04-16T08:48:10;10.40;99.90
19206;DHT22;59358;52.134;5.596;2023-04-16T08:50:37;10.40;99.90
19206;DHT22;59358;52.134;5.596;2023-04-16T08:53:06;10.40;99.90
19206;DHT22;59358;52.134;5.596;2023-04-16T08:55:38;10.40;99.90
19206;DHT22;59358;52.134;5.596;2023-04-16T08:58:08;10.40;99.90
19206;DHT22;59358;52.134;5.596;2023-04-16T09:00:39;10.40;99.90
19206;DHT22;59358;52.134;5.596;2023-04-16T09:03:08;10.40;99.90
19206;DHT22;59358;52.134;5.596;2023-04-16T09:05:36;10.40;99.90
19206;DHT22;59358;52.134;5.596;2023-04-16T09:08:04;10.40;99.90
19206;DHT22;59358;52.134;5.596;2023-04-16T09:10:31;10.40;99.90
19206;DHT22;59358;52.134;5.596;2023-04-16T09:12:58;10.60;99.90
19206;DHT22;59358;52.134;5.596;2023-04-16T09:15:25;10.70;99.90
19206;DHT22;59358;52.134;5.596;2023-04-16T09:17:53;10.70;99.90
19206;DHT22;59358;52.134;5.596;2023-04-16T09:20:22;10.80;99.90
19206;DHT22;59358;52.134;5.596;2023-04-16T09:22:49;10.90;99.90
19206;DHT22;59358;52.134;5.596;2023-04-16T09:25:16;11.00;99.90
19206;DHT22;59358;52.134;5.596;2023-04-16T09:27:43;11.00;99.90
19206;DHT22;59358;52.134;5.596;2023-04-16T09:30:26;10.90;99.90
19206;DHT22;59358;52.134;5.596;2023-04-16T09:33:11;11.00;99.90
19206;DHT22;59358;52.134;5.596;2023-04-16T09:35:48;11.30;99.90
19206;DHT22;59358;52.134;5.596;2023-04-16T09:42:05;11.40;99.90
19206;DHT22;59358;52.134;5.596;2023-04-16T09:44:34;11.70;99.90
19206;DHT22;59358;52.134;5.596;2023-04-16T09:47:05;11.80;99.90
19206;DHT22;59358;52.134;5.596;2023-04-16T09:49:33;11.70;99.90
19206;DHT22;59358;52.134;5.596;2023-04-16T09:52:03;11.70;99.90
19206;DHT22;59358;52.134;5.596;2023-04-16T09:54:34;11.50;99.90
19206;DHT22;59358;52.134;5.596;2023-04-16T09:57:01;11.50;99.90
19206;DHT22;59358;52.134;5.596;2023-04-16T09:59:28;11.50;99.90
19206;DHT22;59358;52.134;5.596;2023-04-16T10:04:29;11.60;99.90
19206;DHT22;59358;52.134;5.596;2023-04-16T10:07:03;11.60;99.90
19206;DHT22;59358;52.134;5.596;2023-04-16T10:09:31;11.70;99.90
19206;DHT22;59358;52.134;5.596;2023-04-16T10:11:58;11.70;99.90
19206;DHT22;59358;52.134;5.596;2023-04-16T10:14:29;11.70;99.90
19206;DHT22;59358;52.134;5.596;2023-04-16T10:16:58;11.80;99.90
19206;DHT22;59358;52.134;5.596;2023-04-16T10:19:26;11.80;99.90
19206;DHT22;59358;52.134;5.596;2023-04-16T10:21:54;11.70;99.90
19206;DHT22;59358;52.134;5.596;2023-04-16T10:24:22;11.80;99.90
19206;DHT22;59358;52.134;5.596;2023-04-16T10:27:01;11.80;99.90
19206;DHT22;59358;52.134;5.596;2023-04-16T10:30:02;11.90;99.90
19206;DHT22;59358;52.134;5.596;2023-04-16T10:32:30;11.70;99.90
19206;DHT22;59358;52.134;5.596;2023-04-16T10:34:57;11.80;99.90
19206;DHT22;59358;52.134;5.596;2023-04-16T10:37:28;11.90;99.90
19206;DHT22;59358;52.134;5.596;2023-04-16T10:39:59;11.90;99.90
19206;DHT22;59358;52.134;5.596;2023-04-16T10:42:26;11.90;99.90
19206;DHT22;59358;52.134;5.596;2023-04-16T10:44:53;12.00;99.90
19206;DHT22;59358;52.134;5.596;2023-04-16T10:47:23;11.90;99.90
19206;DHT22;59358;52.134;5.596;2023-04-16T10:49:51;12.00;99.90
19206;DHT22;59358;52.134;5.596;2023-04-16T10:52:18;11.90;99.90
19206;DHT22;59358;52.134;5.596;2023-04-16T10:54:46;11.90;99.90
19206;DHT22;59358;52.134;5.596;2023-04-16T10:57:16;12.20;99.90
19206;DHT22;59358;52.134;5.596;2023-04-16T10:59:43;12.30;99.90
19206;DHT22;59358;52.134;5.596;2023-04-16T11:02:12;12.40;99.90
19206;DHT22;59358;52.134;5.596;2023-04-16T11:04:42;12.60;99.90
19206;DHT22;59358;52.134;5.596;2023-04-16T11:07:15;12.60;99.90
19206;DHT22;59358;52.134;5.596;2023-04-16T11:09:53;12.40;99.90
19206;DHT22;59358;52.134;5.596;2023-04-16T11:12:23;12.50;99.90
19206;DHT22;59358;52.134;5.596;2023-04-16T11:14:53;12.60;99.90
19206;DHT22;59358;52.134;5.596;2023-04-16T11:17:20;12.50;99.90
19206;DHT22;59358;52.134;5.596;2023-04-16T11:19:47;12.30;99.90
19206;DHT22;59358;52.134;5.596;2023-04-16T11:22:16;12.00;99.90
19206;DHT22;59358;52.134;5.596;2023-04-16T11:24:45;11.70;99.90
19206;DHT22;59358;52.134;5.596;2023-04-16T11:27:12;11.60;99.90
19206;DHT22;59358;52.134;5.596;2023-04-16T11:29:42;11.60;99.90
19206;DHT22;59358;52.134;5.596;2023-04-16T11:32:08;11.50;99.90
19206;DHT22;59358;52.134;5.596;2023-04-16T11:34:42;11.70;99.90
19206;DHT22;59358;52.134;5.596;2023-04-16T11:37:10;11.70;99.90
19206;DHT22;59358;52.134;5.596;2023-04-16T11:39:47;11.70;99.90
19206;DHT22;59358;52.134;5.596;2023-04-16T11:42:18;11.70;99.90
19206;DHT22;59358;52.134;5.596;2023-04-16T11:44:50;11.80;99.90
19206;DHT22;59358;52.134;5.596;2023-04-16T11:47:18;11.90;99.90
19206;DHT22;59358;52.134;5.596;2023-04-16T11:49:44;11.90;99.90
19206;DHT22;59358;52.134;5.596;2023-04-16T11:52:13;12.00;99.90
19206;DHT22;59358;52.134;5.596;2023-04-16T11:54:40;12.00;99.90
19206;DHT22;59358;52.134;5.596;2023-04-16T11:57:07;12.00;99.90
19206;DHT22;59358;52.134;5.596;2023-04-16T11:59:34;12.10;99.90
19206;DHT22;59358;52.134;5.596;2023-04-16T12:02:02;12.20;99.90
19206;DHT22;59358;52.134;5.596;2023-04-16T12:04:32;12.10;99.90
19206;DHT22;59358;52.134;5.596;2023-04-16T12:07:06;12.10;99.90
19206;DHT22;59358;52.134;5.596;2023-04-16T12:09:34;12.00;99.90
19206;DHT22;59358;52.134;5.596;2023-04-16T12:12:01;11.90;99.90
19206;DHT22;59358;52.134;5.596;2023-04-16T12:14:29;11.80;99.90
19206;DHT22;59358;52.134;5.596;2023-04-16T12:16:56;12.00;99.90
19206;DHT22;59358;52.134;5.596;2023-04-16T12:19:24;11.90;99.90
19206;DHT22;59358;52.134;5.596;2023-04-16T12:21:51;12.10;99.90
19206;DHT22;59358;52.134;5.596;2023-04-16T12:24:19;12.00;99.90
19206;DHT22;59358;52.134;5.596;2023-04-16T12:26:51;12.00;99.90
19206;DHT22;59358;52.134;5.596;2023-04-16T12:29:23;12.00;99.90
19206;DHT22;59358;52.134;5.596;2023-04-16T12:31:51;12.00;99.90
19206;DHT22;59358;52.134;5.596;2023-04-16T12:34:19;12.00;99.90
19206;DHT22;59358;52.134;5.596;2023-04-16T12:36:49;12.10;99.90
19206;DHT22;59358;52.134;5.596;2023-04-16T12:39:28;12.10;99.90
19206;DHT22;59358;52.134;5.596;2023-04-16T12:41:55;12.10;99.90
19206;DHT22;59358;52.134;5.596;2023-04-16T12:44:21;12.00;99.90
19206;DHT22;59358;52.134;5.596;2023-04-16T12:46:48;11.90;99.90
19206;DHT22;59358;52.134;5.596;2023-04-16T12:49:15;11.90;99.90
19206;DHT22;59358;52.134;5.596;2023-04-16T12:51:53;11.80;99.90
19206;DHT22;59358;52.134;5.596;2023-04-16T12:54:30;11.70;99.90
19206;DHT22;59358;52.134;5.596;2023-04-16T12:56:57;11.70;99.90
19206;DHT22;59358;52.134;5.596;2023-04-16T12:59:24;11.70;99.90
19206;DHT22;59358;52.134;5.596;2023-04-16T13:01:51;11.60;99.90
19206;DHT22;59358;52.134;5.596;2023-04-16T13:04:18;11.70;99.90
19206;DHT22;59358;52.134;5.596;2023-04-16T13:06:44;11.70;99.90
19206;DHT22;59358;52.134;5.596;2023-04-16T13:09:13;11.70;99.90
19206;DHT22;59358;52.134;5.596;2023-04-16T13:11:40;11.70;99.90
19206;DHT22;59358;52.134;5.596;2023-04-16T13:14:06;11.90;99.90
19206;DHT22;59358;52.134;5.596;2023-04-16T13:16:34;11.80;99.90
19206;DHT22;59358;52.134;5.596;2023-04-16T13:19:03;11.80;99.90
19206;DHT22;59358;52.134;5.596;2023-04-16T13:21:29;12.00;99.90
19206;DHT22;59358;52.134;5.596;2023-04-16T13:23:56;11.90;99.90
19206;DHT22;59358;52.134;5.596;2023-04-16T13:26:24;12.00;99.90
19206;DHT22;59358;52.134;5.596;2023-04-16T13:28:51;12.20;99.90
19206;DHT22;59358;52.134;5.596;2023-04-16T13:31:20;12.30;99.90
19206;DHT22;59358;52.134;5.596;2023-04-16T13:33:47;12.30;99.90
19206;DHT22;59358;52.134;5.596;2023-04-16T13:36:14;12.20;99.90
19206;DHT22;59358;52.134;5.596;2023-04-16T13:38:41;12.10;99.90
19206;DHT22;59358;52.134;5.596;2023-04-16T13:41:08;12.10;99.90
19206;DHT22;59358;52.134;5.596;2023-04-16T13:43:36;12.00;99.90
19206;DHT22;59358;52.134;5.596;2023-04-16T13:46:03;12.10;99.90
19206;DHT22;59358;52.134;5.596;2023-04-16T13:48:30;12.00;99.90
19206;DHT22;59358;52.134;5.596;2023-04-16T13:50:57;12.00;99.90
19206;DHT22;59358;52.134;5.596;2023-04-16T13:53:24;12.10;99.90
19206;DHT22;59358;52.134;5.596;2023-04-16T13:55:51;12.20;99.90
19206;DHT22;59358;52.134;5.596;2023-04-16T13:58:17;12.20;99.90
19206;DHT22;59358;52.134;5.596;2023-04-16T14:00:46;12.30;99.90
19206;DHT22;59358;52.134;5.596;2023-04-16T14:03:13;12.30;99.90
19206;DHT22;59358;52.134;5.596;2023-04-16T14:05:40;12.10;99.90
19206;DHT22;59358;52.134;5.596;2023-04-16T14:08:07;12.00;99.90
19206;DHT22;59358;52.134;5.596;2023-04-16T14:10:34;11.90;99.90
19206;DHT22;59358;52.134;5.596;2023-04-16T14:13:10;11.90;99.90
19206;DHT22;59358;52.134;5.596;2023-04-16T14:15:57;11.80;99.90
19206;DHT22;59358;52.134;5.596;2023-04-16T14:18:24;11.80;99.90
19206;DHT22;59358;52.134;5.596;2023-04-16T14:20:51;11.90;99.90
19206;DHT22;59358;52.134;5.596;2023-04-16T14:23:18;11.90;99.90
19206;DHT22;59358;52.134;5.596;2023-04-16T14:25:45;12.10;99.90
19206;DHT22;59358;52.134;5.596;2023-04-16T14:28:12;12.20;99.90
19206;DHT22;59358;52.134;5.596;2023-04-16T14:30:39;12.10;99.90
19206;DHT22;59358;52.134;5.596;2023-04-16T14:33:07;12.10;99.90
19206;DHT22;59358;52.134;5.596;2023-04-16T14:35:34;12.20;99.90
19206;DHT22;59358;52.134;5.596;2023-04-16T14:38:01;12.40;99.90
19206;DHT22;59358;52.134;5.596;2023-04-16T14:40:27;12.80;99.90
19206;DHT22;59358;52.134;5.596;2023-04-16T14:43:03;13.00;99.90
19206;DHT22;59358;52.134;5.596;2023-04-16T14:45:31;13.10;99.90
19206;DHT22;59358;52.134;5.596;2023-04-16T14:47:58;13.20;99.90
19206;DHT22;59358;52.134;5.596;2023-04-16T14:50:41;13.30;99.90
19206;DHT22;59358;52.134;5.596;2023-04-16T14:53:11;13.20;99.90
19206;DHT22;59358;52.134;5.596;2023-04-16T14:55:38;13.10;99.90
19206;DHT22;59358;52.134;5.596;2023-04-16T14:58:27;13.00;99.90
19206;DHT22;59358;52.134;5.596;2023-04-16T15:01:25;12.90;99.90
19206;DHT22;59358;52.134;5.596;2023-04-16T15:03:58;12.90;99.90
19206;DHT22;59358;52.134;5.596;2023-04-16T15:06:27;12.80;99.90
19206;DHT22;59358;52.134;5.596;2023-04-16T15:08:57;12.90;99.90
19206;DHT22;59358;52.134;5.596;2023-04-16T15:11:24;13.00;99.90
19206;DHT22;59358;52.134;5.596;2023-04-16T15:13:51;13.20;99.90
19206;DHT22;59358;52.134;5.596;2023-04-16T15:16:18;13.40;99.90
19206;DHT22;59358;52.134;5.596;2023-04-16T15:18:44;13.60;99.90
19206;DHT22;59358;52.134;5.596;2023-04-16T15:21:11;13.70;99.90
19206;DHT22;59358;52.134;5.596;2023-04-16T15:23:39;13.70;99.90
19206;DHT22;59358;52.134;5.596;2023-04-16T15:26:06;13.50;99.90
19206;DHT22;59358;52.134;5.596;2023-04-16T15:28:33;13.40;99.90
19206;DHT22;59358;52.134;5.596;2023-04-16T15:31:00;13.20;99.90
19206;DHT22;59358;52.134;5.596;2023-04-16T15:33:27;12.90;99.90
19206;DHT22;59358;52.134;5.596;2023-04-16T15:35:53;12.70;99.90
19206;DHT22;59358;52.134;5.596;2023-04-16T15:38:20;12.40;99.90
19206;DHT22;59358;52.134;5.596;2023-04-16T15:40:48;12.40;99.90
19206;DHT22;59358;52.134;5.596;2023-04-16T15:43:15;12.40;99.90
19206;DHT22;59358;52.134;5.596;2023-04-16T15:45:42;12.50;99.90
19206;DHT22;59358;52.134;5.596;2023-04-16T15:48:08;12.70;99.90
19206;DHT22;59358;52.134;5.596;2023-04-16T15:50:35;12.70;99.90